Time;durP1;ratioP1;P1;durP2;ratioP2;P2;SDS_P1;SDS_P2;PMS_P1;PMS_P2;Temp;Humidity;BMP_temperature;BMP_pressure;BME280_temperature;BME280_humidity;BME280_pressure;Samples;Min_cycle;Max_cycle;Signal;HPM_P1;HPM_P2
2023/11/27 00:00:12;;;;;;;10.52;6.07;;;5.60;99.90;;;;;;6281898;22;20015;-81
2023/11/27 00:03:33;;;;;;;14.90;8.45;;;5.60;99.90;;;;;;6258718;22;20077;-88
2023/11/27 00:06:14;;;;;;;12.50;7.68;;;5.60;99.90;;;;;;6256140;22;20106;-85
2023/11/27 00:08:42;;;;;;;9.85;6.70;;;5.50;99.90;;;;;;6256140;22;20015;-83
2023/11/27 00:11:12;;;;;;;12.27;7.05;;;5.50;99.90;;;;;;6255283;22;20464;-83
2023/11/27 00:13:39;;;;;;;10.23;6.28;;;5.50;99.90;;;;;;6230960;22;20023;-84
2023/11/27 00:16:14;;;;;;;15.10;8.68;;;5.50;99.90;;;;;;6255765;22;20023;-83
2023/11/27 00:18:46;;;;;;;11.27;8.15;;;5.50;99.90;;;;;;6255159;22;20038;-84
2023/11/27 00:21:24;;;;;;;11.18;6.90;;;5.50;99.90;;;;;;6257739;22;20017;-84
2023/11/27 00:24:40;;;;;;;;;;;;;;;;;;;;;
2023/11/27 00:27:27;;;;;;;9.25;6.00;;;5.50;99.90;;;;;;6183327;23;20086;-87
2023/11/27 00:34:51;;;;;;;;;;;;;;;;;;;;;
2023/11/27 00:37:53;;;;;;;11.50;7.60;;;5.50;99.90;;;;;;6098297;23;20105;-84
2023/11/27 00:40:25;;;;;;;12.52;8.15;;;5.50;99.90;;;;;;6043765;23;20042;-85
2023/11/27 00:42:52;;;;;;;11.98;7.40;;;5.50;99.90;;;;;;6066762;23;20050;-85
2023/11/27 00:45:20;;;;;;;11.35;7.20;;;5.50;99.90;;;;;;6042925;23;20458;-87
2023/11/27 00:47:55;;;;;;;10.60;6.55;;;5.50;99.90;;;;;;6064759;23;20019;-84
2023/11/27 00:50:22;;;;;;;16.17;9.13;;;5.50;99.90;;;;;;6058361;23;20029;-84
2023/11/27 00:52:50;;;;;;;10.45;7.45;;;5.50;99.90;;;;;;6129140;23;20026;-83
2023/11/27 00:55:17;;;;;;;10.38;6.60;;;5.50;99.90;;;;;;6153739;23;20025;-84
2023/11/27 00:57:46;;;;;;;11.90;7.85;;;5.50;99.90;;;;;;6164903;23;20106;-84
2023/11/27 01:00:18;;;;;;;11.98;8.63;;;5.50;99.90;;;;;;6170532;23;20103;-84
2023/11/27 01:02:53;;;;;;;13.23;8.68;;;5.50;99.90;;;;;;6219465;23;20012;-86
2023/11/27 01:05:23;;;;;;;13.07;9.02;;;5.50;99.90;;;;;;6194972;23;20020;-84
2023/11/27 01:07:51;;;;;;;12.68;8.93;;;5.50;99.90;;;;;;6195109;23;20036;-84
2023/11/27 01:10:23;;;;;;;15.07;8.77;;;5.50;99.90;;;;;;6195534;23;20044;-84
2023/11/27 01:12:51;;;;;;;11.65;6.78;;;5.50;99.90;;;;;;6194845;23;20024;-84
2023/11/27 01:15:18;;;;;;;10.63;7.50;;;5.50;99.90;;;;;;6195348;23;20046;-84
2023/11/27 01:17:46;;;;;;;13.48;7.63;;;5.50;99.90;;;;;;6194731;23;20028;-83
2023/11/27 01:20:13;;;;;;;10.27;7.38;;;5.50;99.90;;;;;;6194335;23;20103;-83
2023/11/27 01:22:44;;;;;;;11.63;7.10;;;5.50;99.90;;;;;;6194455;23;20020;-83
2023/11/27 01:25:11;;;;;;;11.50;7.60;;;5.50;99.90;;;;;;6194341;23;20046;-83
2023/11/27 01:27:41;;;;;;;12.43;6.68;;;5.50;99.90;;;;;;6194458;23;20020;-83
2023/11/27 01:30:42;;;;;;;11.70;6.30;;;5.50;99.90;;;;;;6195640;23;20099;-90
2023/11/27 02:46:39;;;;;;;9.05;4.55;;;5.20;99.90;;;;;;6034144;23;20019;-90
2023/11/27 03:59:22;;;;;;;;;;;;;;;;;;;;;
2023/11/27 04:03:27;;;;;;;;;;;;;;;;;;;;;
2023/11/27 04:07:29;;;;;;;;;;;;;;;;;;;;;
2023/11/27 04:11:14;;;;;;;13.23;6.43;;;5.00;99.90;;;;;;6073505;23;20358;-92
2023/11/27 04:28:23;;;;;;;;;;;;;;;;;;;;;
2023/11/27 04:40:20;;;;;;;;;;;;;;;;;;;;;
2023/11/27 04:44:29;;;;;;;;;;;;;;;;;;;;;
2023/11/27 05:00:40;;;;;;;;;;;;;;;;;;;;;
2023/11/27 06:08:16;;;;;;;;;;;;;;;;;;;;;
2023/11/27 06:11:22;;;;;;;3.38;2.05;;;5.10;99.90;;;;;;6199158;23;20020;-93
2023/11/27 06:14:43;;;;;;;3.50;1.73;;;5.00;99.90;;;;;;6184940;23;20115;-92
2023/11/27 06:17:59;;;;;;;;;;;;;;;;;;;;;
2023/11/27 06:21:06;;;;;;;;;;;;;;;;;;;;;
2023/11/27 06:23:57;;;;;;;2.78;1.25;;;5.00;99.90;;;;;;6225132;23;20095;-92
2023/11/27 06:27:25;;;;;;;;;;;;;;;;;;;;;
2023/11/27 06:43:29;;;;;;;;;;;;;;;;;;;;;
2023/11/27 06:46:45;;;;;;;2.95;1.10;;;5.00;99.90;;;;;;6101362;23;20093;-92
2023/11/27 06:54:01;;;;;;;;;;;;;;;;;;;;;
2023/11/27 06:57:50;;;;;;;;;;;;;;;;;;;;;
2023/11/27 07:05:33;;;;;;;3.10;1.55;;;4.90;99.90;;;;;;5865321;24;20517;-93
2023/11/27 07:09:10;;;;;;;;;;;;;;;;;;;;;
2023/11/27 07:17:26;;;;;;;;;;;;;;;;;;;;;
2023/11/27 07:24:58;;;;;;;3.05;1.10;;;4.80;99.90;;;;;;5840135;24;20484;-93
2023/11/27 07:28:29;;;;;;;2.47;1.02;;;4.80;99.90;;;;;;5779984;24;20024;-93
2023/11/27 07:33:01;;;;;;;;;;;;;;;;;;;;;
2023/11/27 07:36:03;;;;;;;1.60;0.65;;;4.80;99.90;;;;;;5868408;24;20032;-92
2023/11/27 07:38:32;;;;;;;2.08;0.90;;;4.80;99.90;;;;;;5894927;24;20038;-92
2023/11/27 07:41:20;;;;;;;3.95;1.05;;;4.80;99.90;;;;;;5939996;23;20135;-92
2023/11/27 07:44:03;;;;;;;1.55;0.80;;;4.80;99.90;;;;;;6018526;23;20103;-92
2023/11/27 07:50:50;;;;;;;2.13;1.02;;;4.80;99.90;;;;;;6038217;23;20087;-92
2023/11/27 08:02:29;;;;;;;;;;;;;;;;;;;;;
2023/11/27 08:05:35;;;;;;;2.78;1.00;;;4.80;99.90;;;;;;6133229;23;20028;-92
2023/11/27 08:08:59;;;;;;;;;;;;;;;;;;;;;
2023/11/27 08:12:57;;;;;;;;;;;;;;;;;;;;;
2023/11/27 08:16:17;;;;;;;2.83;1.30;;;4.80;99.90;;;;;;6035853;23;20034;-92
2023/11/27 08:27:53;;;;;;;1.73;0.90;;;4.80;99.90;;;;;;6008910;23;20031;-91
2023/11/27 08:31:27;;;;;;;;;;;;;;;;;;;;;
2023/11/27 08:34:33;;;;;;;;;;;;;;;;;;;;;
2023/11/27 08:37:25;;;;;;;3.45;1.50;;;4.80;99.90;;;;;;6158115;23;20017;-89
2023/11/27 08:40:02;;;;;;;2.00;0.98;;;4.80;99.90;;;;;;6136105;23;20017;-90
2023/11/27 08:42:48;;;;;;;2.03;1.05;;;4.80;99.90;;;;;;6157693;23;20017;-90
2023/11/27 08:48:25;;;;;;;2.35;1.00;;;4.80;99.90;;;;;;6185561;23;20099;-90
2023/11/27 08:51:00;;;;;;;2.83;1.40;;;4.80;99.90;;;;;;6160420;23;20380;-90
2023/11/27 08:54:32;;;;;;;3.67;1.25;;;4.80;99.90;;;;;;6063125;23;20020;-90
2023/11/27 08:57:36;;;;;;;3.13;1.30;;;4.80;99.90;;;;;;6043146;23;20485;-90
2023/11/27 09:01:05;;;;;;;2.55;1.10;;;4.80;99.90;;;;;;6066937;23;20058;-89
2023/11/27 09:04:43;;;;;;;;;;;4.90;99.90;;;;;;6122187;23;20140;-91
2023/11/27 09:08:22;;;;;;;1.40;0.80;;;4.80;99.90;;;;;;6162914;23;19916;-90
2023/11/27 09:12:26;;;;;;;;;;;;;;;;;;;;;
2023/11/27 09:15:51;;;;;;;3.13;1.17;;;4.90;99.90;;;;;;6117600;23;20044;-90
2023/11/27 09:19:21;;;;;;;2.22;0.82;;;4.90;99.90;;;;;;6165522;23;20025;-90
2023/11/27 09:22:22;;;;;;;2.15;1.10;;;4.90;99.90;;;;;;6156345;23;20021;-89
2023/11/27 09:25:20;;;;;;;2.03;0.93;;;4.90;99.90;;;;;;6167516;23;20104;-89
2023/11/27 09:28:01;;;;;;;3.17;1.33;;;4.90;99.90;;;;;;6162238;23;20025;-89
2023/11/27 09:30:32;;;;;;;1.85;0.90;;;4.90;99.90;;;;;;6136231;23;20048;-89
2023/11/27 09:33:04;;;;;;;2.20;1.17;;;5.00;99.90;;;;;;6136123;23;20028;-90
2023/11/27 09:35:34;;;;;;;2.72;1.17;;;5.00;99.90;;;;;;6136524;23;20060;-89
2023/11/27 09:38:09;;;;;;;2.15;1.20;;;5.00;99.90;;;;;;6160738;23;20037;-90
2023/11/27 09:40:53;;;;;;;2.22;0.88;;;5.00;99.90;;;;;;6161942;23;20017;-89
2023/11/27 09:43:23;;;;;;;2.03;0.82;;;5.00;99.90;;;;;;6137493;23;20017;-90
2023/11/27 09:46:00;;;;;;;2.28;0.90;;;5.10;99.90;;;;;;6160304;23;20040;-90
2023/11/27 09:48:30;;;;;;;2.20;1.20;;;5.10;99.90;;;;;;6160682;23;20051;-90
2023/11/27 09:51:10;;;;;;;3.42;1.75;;;5.10;99.90;;;;;;6136636;23;20027;-90
2023/11/27 09:53:58;;;;;;;2.55;1.42;;;5.10;99.90;;;;;;6139410;23;20024;-89
2023/11/27 09:57:08;;;;;;;1.95;1.00;;;5.10;99.90;;;;;;6164711;23;20028;-89
2023/11/27 09:59:42;;;;;;;1.95;0.88;;;5.10;99.90;;;;;;6136983;23;20013;-91
2023/11/27 10:02:27;;;;;;;2.17;1.08;;;5.10;99.90;;;;;;6162853;23;20016;-89
2023/11/27 10:04:58;;;;;;;1.80;0.80;;;5.10;99.90;;;;;;6160494;23;20017;-90
2023/11/27 10:07:54;;;;;;;1.85;0.82;;;5.10;99.90;;;;;;6043449;23;20021;-90
2023/11/27 10:10:58;;;;;;;2.00;0.90;;;5.20;99.90;;;;;;6162599;23;20092;-87
2023/11/27 10:16:40;;;;;;;1.55;0.82;;;5.20;99.90;;;;;;6184908;23;20028;-85
2023/11/27 10:19:12;;;;;;;1.67;0.70;;;5.30;99.90;;;;;;6159889;23;20021;-84
2023/11/27 10:21:42;;;;;;;1.60;0.70;;;5.30;99.90;;;;;;6159531;23;20403;-84
2023/11/27 10:24:10;;;;;;;1.60;0.60;;;5.30;99.90;;;;;;6160871;23;20017;-88
2023/11/27 10:26:40;;;;;;;1.48;0.60;;;5.30;99.90;;;;;;6162596;23;20020;-89
2023/11/27 10:29:49;;;;;;;1.40;0.75;;;5.40;99.90;;;;;;6166826;23;20025;-88
2023/11/27 10:33:22;;;;;;;2.03;0.70;;;5.40;99.90;;;;;;6141512;23;20452;-91
2023/11/27 10:36:09;;;;;;;2.58;0.65;;;5.40;99.90;;;;;;6167842;23;20047;-89
2023/11/27 10:45:35;;;;;;;1.15;0.60;;;5.40;99.90;;;;;;6093232;23;20018;-84
2023/11/27 10:48:28;;;;;;;1.60;0.57;;;5.50;99.90;;;;;;6044700;23;20086;-86
2023/11/27 10:51:52;;;;;;;1.98;1.00;;;5.50;99.90;;;;;;5997474;23;20026;-85
2023/11/27 10:55:08;;;;;;;0.98;0.50;;;5.50;99.90;;;;;;6111434;23;20023;-89
2023/11/27 10:58:05;;;;;;;1.30;0.70;;;5.50;99.90;;;;;;6162665;23;20439;-91
2023/11/27 11:00:46;;;;;;;1.08;0.60;;;5.50;99.90;;;;;;6162071;23;20510;-83
2023/11/27 11:03:24;;;;;;;1.05;0.50;;;5.50;99.90;;;;;;6138814;23;20052;-89
2023/11/27 11:05:56;;;;;;;1.13;0.65;;;5.50;99.90;;;;;;6163658;23;20028;-88
2023/11/27 11:08:59;;;;;;;1.00;0.40;;;5.50;99.90;;;;;;6098719;23;20526;-89
2023/11/27 11:11:30;;;;;;;1.02;0.43;;;5.60;99.90;;;;;;6108244;23;20029;-86
2023/11/27 11:13:58;;;;;;;1.27;0.57;;;5.60;99.90;;;;;;6115500;23;20028;-91
2023/11/27 11:16:44;;;;;;;;;;;5.60;99.90;;;;;;6088700;23;20033;-88
2023/11/27 11:19:47;;;;;;;1.27;0.65;;;5.60;99.90;;;;;;6133581;23;19927;-84
2023/11/27 11:22:30;;;;;;;1.58;0.50;;;5.60;99.90;;;;;;6072215;23;20018;-89
2023/11/27 11:25:29;;;;;;;1.75;0.70;;;5.60;99.90;;;;;;6133450;23;20025;-90
2023/11/27 11:28:33;;;;;;;1.10;0.50;;;5.60;99.90;;;;;;6107757;23;20022;-84
2023/11/27 11:32:00;;;;;;;;;;;;;;;;;;;;;
2023/11/27 11:34:58;;;;;;;0.85;0.40;;;5.70;99.90;;;;;;6001617;23;20107;-84
2023/11/27 11:42:56;;;;;;;1.13;0.50;;;5.70;99.90;;;;;;5954310;24;20065;-83
2023/11/27 11:51:04;;;;;;;1.10;0.40;;;5.80;99.90;;;;;;5930738;24;20047;-84
2023/11/27 11:57:21;;;;;;;1.20;0.60;;;5.80;99.90;;;;;;5957747;23;20019;-88
2023/11/27 11:59:53;;;;;;;1.10;0.50;;;5.80;99.90;;;;;;6045767;23;20063;-83
2023/11/27 12:02:22;;;;;;;1.40;0.70;;;5.80;99.90;;;;;;6042745;23;20358;-82
2023/11/27 12:04:51;;;;;;;1.25;0.50;;;5.80;99.90;;;;;;6042361;23;20027;-82
2023/11/27 12:07:22;;;;;;;1.50;0.50;;;5.80;99.90;;;;;;6053953;23;20037;-82
2023/11/27 12:09:51;;;;;;;2.13;0.98;;;5.80;99.90;;;;;;6047114;23;20034;-82
2023/11/27 12:12:26;;;;;;;1.00;0.60;;;5.80;99.90;;;;;;6066015;23;20017;-91
2023/11/27 12:15:33;;;;;;;1.90;0.80;;;5.80;99.90;;;;;;6145218;23;20022;-95
2023/11/27 12:19:05;;;;;;;;;;;;;;;;;;;;;
2023/11/27 12:22:09;;;;;;;1.10;0.60;;;5.80;99.90;;;;;;6097791;23;20109;-92
2023/11/27 12:25:09;;;;;;;1.25;0.57;;;5.90;99.90;;;;;;6059234;23;20050;-93
2023/11/27 12:28:14;;;;;;;1.17;0.70;;;5.80;99.90;;;;;;6082122;23;20018;-95
2023/11/27 12:38:52;;;;;;;2.00;0.80;;;5.90;99.90;;;;;;6014361;23;20023;-88
2023/11/27 12:41:33;;;;;;;1.75;0.80;;;5.80;99.90;;;;;;5995295;23;20451;-84
2023/11/27 12:44:18;;;;;;;1.50;0.70;;;5.90;99.90;;;;;;6014308;23;20327;-83
2023/11/27 12:46:59;;;;;;;2.03;1.02;;;5.90;99.90;;;;;;6013745;23;20481;-83
2023/11/27 12:49:41;;;;;;;;;;;5.90;99.90;;;;;;6156098;23;20025;-88
2023/11/27 12:52:11;;;;;;;1.48;0.68;;;5.90;99.90;;;;;;6155612;23;19916;-87
2023/11/27 12:55:19;;;;;;;;;;;;;;;;;;;;;
2023/11/27 13:03:03;;;;;;;1.38;0.60;;;5.90;99.90;;;;;;6101240;23;20006;-87
2023/11/27 13:09:47;;;;;;;2.15;1.00;;;6.00;99.90;;;;;;6071898;23;20014;-87
2023/11/27 13:12:48;;;;;;;2.35;1.10;;;5.90;99.90;;;;;;6073776;23;20352;-93
2023/11/27 13:15:34;;;;;;;1.60;0.80;;;5.90;99.90;;;;;;6079089;23;20021;-88
2023/11/27 13:18:31;;;;;;;;;;;;;;;;;;;;;
2023/11/27 13:21:32;;;;;;;1.77;0.80;;;5.90;99.90;;;;;;6148236;23;20508;-92
2023/11/27 13:24:15;;;;;;;1.52;0.80;;;6.00;99.90;;;;;;6154091;23;20018;-87
2023/11/27 13:27:07;;;;;;;1.48;0.88;;;6.00;99.90;;;;;;6107184;23;20021;-88
2023/11/27 13:29:51;;;;;;;1.30;0.60;;;6.00;99.90;;;;;;6130942;23;20025;-87
2023/11/27 13:32:36;;;;;;;1.83;0.98;;;6.00;99.90;;;;;;6133185;23;20056;-95
2023/11/27 13:35:32;;;;;;;2.08;0.80;;;6.00;99.90;;;;;;6015609;23;20415;-94
2023/11/27 13:38:23;;;;;;;1.63;0.77;;;6.00;99.90;;;;;;6047976;23;20083;-94
2023/11/27 13:41:22;;;;;;;1.10;0.55;;;6.00;99.90;;;;;;6137796;23;20092;-93
2023/11/27 13:52:00;;;;;;;;;;;;;;;;;;;;;
2023/11/27 13:55:32;;;;;;;1.10;0.43;;;6.20;99.90;;;;;;6058727;23;20053;-88
2023/11/27 14:07:39;;;;;;;0.93;0.35;;;6.10;99.90;;;;;;5935801;24;20065;-89
2023/11/27 14:10:24;;;;;;;0.63;0.40;;;6.10;99.90;;;;;;5968494;24;20024;-87
2023/11/27 14:13:02;;;;;;;0.77;0.28;;;6.00;99.90;;;;;;5945753;24;20028;-89
2023/11/27 14:16:42;;;;;;;1.05;0.47;;;6.00;99.90;;;;;;5962529;24;20028;-92
2023/11/27 14:36:20;;;;;;;0.90;0.50;;;6.00;99.90;;;;;;5822229;24;20465;-92
2023/11/27 14:48:36;;;;;;;1.83;0.80;;;6.00;99.90;;;;;;5742807;24;20092;-88
2023/11/27 14:56:07;;;;;;;2.30;1.00;;;5.90;99.90;;;;;;5742931;25;20063;-92
2023/11/27 14:59:07;;;;;;;;;;;;;;;;;;;;;
2023/11/27 15:07:35;;;;;;;1.35;0.73;;;5.90;99.90;;;;;;5929821;24;20024;-91
2023/11/27 15:10:53;;;;;;;1.58;0.80;;;5.80;99.90;;;;;;5942026;24;20039;-87
2023/11/27 15:13:37;;;;;;;;;;;;;;;;;;;;;
2023/11/27 15:25:53;;;;;;;1.45;0.60;;;5.90;99.90;;;;;;5965036;24;20027;-91
2023/11/27 15:56:34;;;;;;;1.85;0.82;;;5.90;99.90;;;;;;6189782;23;20067;-87
2023/11/27 15:59:05;;;;;;;1.75;1.00;;;5.80;99.90;;;;;;6165353;23;20074;-89
2023/11/27 16:01:33;;;;;;;1.63;0.90;;;5.80;99.90;;;;;;6165973;23;20017;-86
2023/11/27 16:04:04;;;;;;;2.58;1.30;;;5.80;99.90;;;;;;6118137;23;20023;-88
2023/11/27 16:06:31;;;;;;;1.55;0.80;;;5.80;99.90;;;;;;6165532;23;20550;-87
2023/11/27 16:08:59;;;;;;;2.28;1.30;;;5.80;99.90;;;;;;6165723;23;20024;-91
2023/11/27 16:11:26;;;;;;;3.05;1.45;;;5.80;99.90;;;;;;6166154;23;20403;-86
2023/11/27 16:13:56;;;;;;;2.58;1.50;;;5.80;99.90;;;;;;6165621;23;20024;-87
2023/11/27 16:16:27;;;;;;;3.30;1.90;;;5.80;99.90;;;;;;6190062;23;20024;-85
2023/11/27 16:18:54;;;;;;;2.95;2.05;;;5.80;99.90;;;;;;6164974;23;20021;-85
2023/11/27 16:51:21;;;;;;;;;;;;;;;;;;;;;
2023/11/27 16:54:34;;;;;;;5.47;3.20;;;5.70;99.90;;;;;;6121087;23;20441;-86
2023/11/27 16:57:19;;;;;;;;;;;;;;;;;;;;;
2023/11/27 17:05:53;;;;;;;7.28;4.57;;;5.40;99.90;;;;;;6010865;23;20037;-88
2023/11/27 17:09:22;;;;;;;7.78;4.55;;;5.30;99.90;;;;;;5969563;23;20011;-89
2023/11/27 17:17:21;;;;;;;;;;;;;;;;;;;;;
2023/11/27 17:29:13;;;;;;;8.60;5.25;;;4.70;99.90;;;;;;5897129;23;20016;-89
2023/11/27 17:32:32;;;;;;;10.05;5.90;;;4.60;99.90;;;;;;6069893;23;20022;-90
2023/11/27 17:35:38;;;;;;;10.68;6.35;;;4.50;99.90;;;;;;6071185;23;20033;-86
2023/11/27 17:38:10;;;;;;;10.65;6.28;;;4.40;99.90;;;;;;6096870;23;20026;-88
2023/11/27 17:50:03;;;;;;;;;;;;;;;;;;;;;
2023/11/27 17:54:43;;;;;;;9.98;6.30;;;4.20;99.90;;;;;;5973842;23;20079;-92
2023/11/27 17:57:38;;;;;;;9.45;5.93;;;4.10;99.90;;;;;;6095647;23;20022;-89
2023/11/27 18:09:05;;;;;;;10.13;5.57;;;3.90;99.90;;;;;;6199451;23;20099;-90
2023/11/27 18:11:36;;;;;;;7.93;5.50;;;3.90;99.90;;;;;;6195652;23;20031;-86
2023/11/27 18:21:17;;;;;;;8.25;4.47;;;3.70;99.90;;;;;;6220938;23;20095;-91
2023/11/27 18:24:24;;;;;;;7.63;4.22;;;3.70;99.90;;;;;;6173876;23;20016;-93
2023/11/27 18:27:59;;;;;;;7.95;4.13;;;3.60;99.90;;;;;;6205333;23;20016;-87
2023/11/27 18:30:55;;;;;;;6.82;4.22;;;3.60;99.90;;;;;;6194728;23;20020;-85
2023/11/27 18:38:22;;;;;;;7.30;3.95;;;3.50;99.90;;;;;;6104828;23;20022;-94
2023/11/27 18:41:02;;;;;;;6.55;3.75;;;3.40;99.90;;;;;;6054400;23;20073;-91
2023/11/27 18:54:12;;;;;;;5.13;2.78;;;3.20;99.90;;;;;;5990485;24;20046;-94
2023/11/27 19:20:38;;;;;;;5.90;3.30;;;2.70;99.90;;;;;;6029034;23;21334;-85
2023/11/27 19:24:16;;;;;;;5.75;3.47;;;2.70;99.90;;;;;;6070288;23;20028;-83
2023/11/27 19:26:52;;;;;;;5.75;3.33;;;2.60;99.90;;;;;;6160330;23;20029;-84
2023/11/27 19:29:30;;;;;;;6.70;3.92;;;2.60;99.90;;;;;;6158078;23;20021;-85
2023/11/27 19:32:12;;;;;;;6.20;3.25;;;2.60;99.90;;;;;;6108312;23;20092;-84
2023/11/27 19:34:39;;;;;;;6.75;3.78;;;2.60;99.90;;;;;;6134336;23;20085;-86
2023/11/27 19:37:10;;;;;;;4.97;2.88;;;2.60;99.90;;;;;;6158869;23;20108;-84
2023/11/27 19:39:47;;;;;;;5.47;2.78;;;2.60;99.90;;;;;;6109992;23;20096;-87
2023/11/27 19:42:35;;;;;;;5.18;2.50;;;2.60;99.90;;;;;;6150815;22;20019;-87
2023/11/27 19:45:12;;;;;;;7.35;3.65;;;2.50;99.90;;;;;;6228403;22;20043;-91
2023/11/27 19:47:55;;;;;;;7.43;3.92;;;2.50;99.90;;;;;;6228554;22;20073;-90
2023/11/27 19:55:52;;;;;;;;;;;;;;;;;;;;;
2023/11/27 19:58:46;;;;;;;9.43;4.97;;;2.50;99.90;;;;;;6102585;23;20430;-87
2023/11/27 20:01:40;;;;;;;8.77;4.53;;;2.40;99.90;;;;;;6081692;23;20109;-93
2023/11/27 20:04:30;;;;;;;6.68;3.47;;;2.50;99.90;;;;;;6099387;23;20105;-92
2023/11/27 20:11:38;;;;;;;7.55;4.00;;;2.50;99.90;;;;;;6245209;22;20031;-93
2023/11/27 20:15:25;;;;;;;6.35;3.42;;;2.40;99.90;;;;;;6229867;22;20464;-91
2023/11/27 20:18:59;;;;;;;;;;;;;;;;;;;;;
2023/11/27 20:22:15;;;;;;;7.68;4.53;;;2.50;99.90;;;;;;6278208;22;20008;-87
2023/11/27 20:24:44;;;;;;;7.85;4.35;;;2.40;99.90;;;;;;6226192;22;20020;-91
2023/11/27 20:27:59;;;;;;;6.65;3.80;;;2.40;99.90;;;;;;6206451;22;20354;-94
2023/11/27 20:30:50;;;;;;;8.05;4.38;;;2.40;99.90;;;;;;6237858;22;20098;-88
2023/11/27 20:33:40;;;;;;;7.43;4.00;;;2.40;99.90;;;;;;6226980;22;20020;-85
2023/11/27 20:36:12;;;;;;;7.43;3.55;;;2.40;99.90;;;;;;6202038;22;20110;-90
2023/11/27 20:38:59;;;;;;;7.28;3.70;;;2.40;99.90;;;;;;6227366;22;20031;-90
2023/11/27 20:41:42;;;;;;;7.95;4.40;;;2.40;99.90;;;;;;6232258;22;20387;-94
2023/11/27 20:44:11;;;;;;;6.90;3.88;;;2.40;99.90;;;;;;6229622;22;20021;-89
2023/11/27 20:46:38;;;;;;;9.32;4.63;;;2.40;99.90;;;;;;6226578;22;20020;-86
2023/11/27 20:49:10;;;;;;;8.52;4.80;;;2.40;99.90;;;;;;6230608;22;20026;-92
2023/11/27 21:00:18;;;;;;;8.77;4.63;;;2.40;99.90;;;;;;6278146;22;20520;-88
2023/11/27 21:03:53;;;;;;;8.40;5.20;;;2.40;99.90;;;;;;6226404;22;20012;-91
2023/11/27 21:07:08;;;;;;;9.93;5.20;;;2.40;99.90;;;;;;6261911;22;20034;-84
2023/11/27 21:09:46;;;;;;;10.30;5.27;;;2.40;99.90;;;;;;6228022;22;20110;-89
2023/11/27 21:16:47;;;;;;;8.18;4.57;;;2.40;99.90;;;;;;6125946;22;20115;-90
2023/11/27 21:24:14;;;;;;;8.77;4.78;;;2.40;99.90;;;;;;6031768;23;20528;-86
2023/11/27 21:30:37;;;;;;;7.95;4.45;;;2.50;99.90;;;;;;6136449;23;20018;-95
2023/11/27 21:33:12;;;;;;;9.68;5.70;;;2.50;99.90;;;;;;6127171;23;20014;-92
2023/11/27 21:36:01;;;;;;;;;;;;;;;;;;;;;
2023/11/27 21:38:57;;;;;;;9.73;5.63;;;2.50;99.90;;;;;;6138781;22;20115;-93
2023/11/27 21:41:58;;;;;;;9.75;5.60;;;2.50;99.90;;;;;;6196539;23;20027;-94
2023/11/27 21:45:27;;;;;;;;;;;;;;;;;;;;;
2023/11/27 21:49:51;;;;;;;;;;;;;;;;;;;;;
2023/11/27 21:52:36;;;;;;;10.07;5.80;;;2.60;99.90;;;;;;6021968;23;20215;-88
2023/11/27 21:59:03;;;;;;;9.02;4.80;;;2.70;99.90;;;;;;5914051;24;20021;-92
2023/11/27 22:02:03;;;;;;;11.27;5.53;;;2.70;99.90;;;;;;5910724;24;20048;-94
2023/11/27 22:04:58;;;;;;;9.80;6.00;;;2.70;99.90;;;;;;5883873;24;20017;-95
2023/11/27 22:08:20;;;;;;;9.07;5.20;;;2.70;99.90;;;;;;5933285;24;20079;-93
2023/11/27 22:10:52;;;;;;;8.57;4.93;;;2.70;99.90;;;;;;5908359;24;20031;-86
2023/11/27 22:13:21;;;;;;;9.13;5.53;;;2.80;99.90;;;;;;5908209;24;20463;-88
2023/11/27 22:25:20;;;;;;;10.00;6.43;;;2.90;99.90;;;;;;5957303;24;20024;-95
2023/11/27 22:32:48;;;;;;;9.57;5.28;;;2.90;99.90;;;;;;5985242;24;20095;-94
2023/11/27 22:36:16;;;;;;;7.88;4.53;;;3.00;99.90;;;;;;5914887;24;20012;-91
2023/11/27 22:39:17;;;;;;;9.27;5.35;;;3.00;99.90;;;;;;5979355;24;20020;-91
2023/11/27 22:41:55;;;;;;;8.50;4.72;;;3.00;99.90;;;;;;5914125;24;20020;-88
2023/11/27 22:44:21;;;;;;;8.88;5.38;;;3.00;99.90;;;;;;5965143;23;20012;-86
2023/11/27 22:47:02;;;;;;;6.65;3.40;;;3.10;99.90;;;;;;5966203;23;20027;-92
2023/11/27 22:58:42;;;;;;;6.63;3.77;;;3.20;99.90;;;;;;5937933;24;20048;-83
2023/11/27 23:02:32;;;;;;;7.10;4.33;;;3.20;99.90;;;;;;5996763;23;20168;-90
2023/11/27 23:05:51;;;;;;;6.10;3.60;;;3.20;99.90;;;;;;5961147;24;20028;-87
2023/11/27 23:09:02;;;;;;;;;;;;;;;;;;;;;
2023/11/27 23:12:42;;;;;;;;;;;;;;;;;;;;;
2023/11/27 23:15:47;;;;;;;4.47;2.72;;;3.20;99.90;;;;;;5953299;24;20076;-85
2023/11/27 23:18:21;;;;;;;4.43;2.50;;;3.20;99.90;;;;;;5982794;24;20095;-88
2023/11/27 23:21:32;;;;;;;5.28;3.15;;;3.20;99.90;;;;;;6054266;23;20018;-83
2023/11/27 23:24:24;;;;;;;4.50;2.78;;;3.20;99.90;;;;;;6071817;23;20032;-85
2023/11/27 23:32:29;;;;;;;6.25;4.20;;;3.20;99.90;;;;;;6158829;23;20054;-90
2023/11/27 23:53:49;;;;;;;6.60;4.38;;;3.20;99.90;;;;;;6215711;22;20024;-88
2023/11/27 23:56:15;;;;;;;7.95;5.32;;;3.20;99.90;;;;;;6173808;23;20024;-88
2023/11/27 23:58:43;;;;;;;6.68;4.32;;;3.20;99.90;;;;;;6195543;23;20016;-87
